Zim Chicago — A8SI9 — position and weather

sailwx.info

Track history (hours):
 
Tides and Currents Weather Stations Pressure Air Temp Water Temp Dewpoint Dewpoint Depression Visibility Wind Speed Wind Dir Waves Ship Positions

Zim Chicago

Last reported at 2014-Sep-28 07:23 UTC. Time now 2014-Oct-02 10:37 UTC.
Position N 53°10' E 004°23'.

Length 334 m; draft 11.4 m.

Type: Cargo ship. MMSI: 636014223.

Date/timePositionNaut miles runAvg speedWind from/ knotsBaromVisibWave heightAir tempDewpointWater temp
2014-Sep-28 07:23N 53°10' E 004°23'  
2014-Sep-25 13:28N 28°16' E 123°37'34217.1
2014-Sep-24 17:26N 24°14' E 119°08'3316.8
2014-Sep-24 15:30N 23°56' E 118°38'1515.5
2014-Sep-24 14:33N 23°50' E 118°24'1717.0
2014-Sep-24 13:33N 23°42' E 118°07'1717.2
2014-Sep-24 12:33N 23°31' E 117°53'1817.5
2014-Sep-24 11:30N 23°18' E 117°39'191 7.6
2014-Sep-23 10:29N 22°35' E 114°17'0 0.0
2014-Sep-23 07:11N 22°35' E 114°17'0 0.0
2014-Sep-23 04:24N 22°35' E 114°17'6 2.2
2014-Sep-23 01:33N 22°33' E 114°23'1 0.6
2014-Sep-23 00:19N 22°33' E 114°23'22 4.4
2014-Sep-22 19:13N 22°17' E 114°06'1111.1
2014-Sep-22 18:13N 22°21' E 113°55'710.6
2014-Sep-22 17:33N 22°28' E 113°52'4 3.4
2014-Sep-22 16:18N 22°32' E 113°51'0 0.0
2014-Sep-22 15:24N 22°32' E 113°51'0 0.0
2014-Sep-22 14:24N 22°32' E 113°51'0 0.0
2014-Sep-22 13:30N 22°32' E 113°51'0 0.0
2014-Sep-22 12:24N 22°32' E 113°51'0 0.0
2014-Sep-22 11:30N 22°32' E 113°51'0 0.0
2014-Sep-22 10:12N 22°32' E 113°51'0 0.0
2014-Sep-22 09:30N 22°32' E 113°51'0 0.0
2014-Sep-22 07:24N 22°32' E 113°51'0 0.0
2014-Sep-22 06:30N 22°32' E 113°51'0 0.0
2014-Sep-22 05:30N 22°32' E 113°51'0 0.0
2014-Sep-22 04:24N 22°32' E 113°51'0 0.0
2014-Sep-22 03:24N 22°32' E 113°51'0 0.0
2014-Sep-22 02:30N 22°32' E 113°51'0 0.0
2014-Sep-22 00:06N 22°32' E 113°51'0 0.0
2014-Sep-21 23:30N 22°32' E 113°51'0 0.0
2014-Sep-21 21:24N 22°32' E 113°51'1 1.3
2014-Sep-21 20:33N 22°31' E 113°51'9 9.2
2014-Sep-21 19:33N 22°22' E 113°54'1211.9
2014-Sep-21 18:33N 22°19' E 114°07'3 0.1
2014-Sep-20 15:29N 22°17' E 114°07'  
Track history (hours):
 
Tides and Currents Weather Stations Pressure Air Temp Water Temp Dewpoint Dewpoint Depression Visibility Wind Speed Wind Dir Waves Ship Positions

Zim Chicago

Last reported at 2014-Sep-28 07:23 UTC. Time now 2014-Oct-02 10:37 UTC.
Position N 53°10' E 004°23'.

Length 334 m; draft 11.4 m.

Type: Cargo ship. MMSI: 636014223.

Date/timePositionNaut miles runAvg speedWind from/ knotsBaromVisibWave heightAir tempDewpointWater temp
2014-Sep-28 07:23N 53°10' E 004°23'  
2014-Sep-25 13:28N 28°16' E 123°37'34217.1
2014-Sep-24 17:26N 24°14' E 119°08'3316.8
2014-Sep-24 15:30N 23°56' E 118°38'1515.5
2014-Sep-24 14:33N 23°50' E 118°24'1717.0
2014-Sep-24 13:33N 23°42' E 118°07'1717.2
2014-Sep-24 12:33N 23°31' E 117°53'1817.5
2014-Sep-24 11:30N 23°18' E 117°39'191 7.6
2014-Sep-23 10:29N 22°35' E 114°17'0 0.0
2014-Sep-23 07:11N 22°35' E 114°17'0 0.0
2014-Sep-23 04:24N 22°35' E 114°17'6 2.2
2014-Sep-23 01:33N 22°33' E 114°23'1 0.6
2014-Sep-23 00:19N 22°33' E 114°23'22 4.4
2014-Sep-22 19:13N 22°17' E 114°06'1111.1
2014-Sep-22 18:13N 22°21' E 113°55'710.6
2014-Sep-22 17:33N 22°28' E 113°52'4 3.4
2014-Sep-22 16:18N 22°32' E 113°51'0 0.0
2014-Sep-22 15:24N 22°32' E 113°51'0 0.0
2014-Sep-22 14:24N 22°32' E 113°51'0 0.0
2014-Sep-22 13:30N 22°32' E 113°51'0 0.0
2014-Sep-22 12:24N 22°32' E 113°51'0 0.0
2014-Sep-22 11:30N 22°32' E 113°51'0 0.0
2014-Sep-22 10:12N 22°32' E 113°51'0 0.0
2014-Sep-22 09:30N 22°32' E 113°51'0 0.0
2014-Sep-22 07:24N 22°32' E 113°51'0 0.0
2014-Sep-22 06:30N 22°32' E 113°51'0 0.0
2014-Sep-22 05:30N 22°32' E 113°51'0 0.0
2014-Sep-22 04:24N 22°32' E 113°51'0 0.0
2014-Sep-22 03:24N 22°32' E 113°51'0 0.0
2014-Sep-22 02:30N 22°32' E 113°51'0 0.0
2014-Sep-22 00:06N 22°32' E 113°51'0 0.0
2014-Sep-21 23:30N 22°32' E 113°51'0 0.0
2014-Sep-21 21:24N 22°32' E 113°51'1 1.3
2014-Sep-21 20:33N 22°31' E 113°51'9 9.2
2014-Sep-21 19:33N 22°22' E 113°54'1211.9
2014-Sep-21 18:33N 22°19' E 114°07'3 0.1
2014-Sep-20 15:29N 22°17' E 114°07'  

Dump ship's entire track history